Main page
METAR-TAF:

METAR-TAF

Airports :

Orio al Serio International Airport

Bergamo, Italy

latitude: 45-40N, longitude: 009-42E, elevation: 238 m

Current weather observation

The report was made 25 minutes ago, at 23:50 UTC
Wind 3 kt from the North
Temperature 22°C
Humidity 83%
Pressure 1014 hPa
Visibility 10 km or more
Few clouds at a height of 10000 ft

METAR: LIME 132350Z 01003KT 9999 FEW100 22/19 Q1014 NOSIG

Time: 02:15 (00:15 UTC)

Forecast

The report was made 1 hour and 15 minutes ago, at 23:00 UTC
Forecast valid from 14 at 00 UTC to 14 at 24 UTC
Wind 5 kt from variable directions
Visibility 10 km or more
Few clouds at a height of 4000 ft
Temporary
from 14 at 04 UTC to 14 at 16 UTC
Visibility: 4000 m
thunderstorm, rain

TAF: LIME 132300Z 1400/1424 VRB05KT 9999 FEW040 TEMPO 1404/1416 4000 TSRA

Weather observations and forecasts of more than 4000 airports (METAR and TAF reports).

The available stations are represented by yellow and red dots on the map.

Hover mouse over dot to see the name of the station.

Then click to see weather observations and forecasts.

To change the map : click on the green buttons with a black cross to zoom in, on the green button with a dash to zoom out, or on the green arrows for adjacent maps.


METAR-TAF: